sensor_id;sensor_type;location;lat;lon;timestamp;temperature;humidity
35962;DHT22;22044;48.298;10.008;2022-10-16T00:00:28;13.20;99.90
35962;DHT22;22044;48.298;10.008;2022-10-16T00:03:13;13.10;99.90
35962;DHT22;22044;48.298;10.008;2022-10-16T00:06:00;13.10;99.90
35962;DHT22;22044;48.298;10.008;2022-10-16T00:08:47;13.20;99.90
35962;DHT22;22044;48.298;10.008;2022-10-16T00:11:35;13.20;99.90
35962;DHT22;22044;48.298;10.008;2022-10-16T00:14:21;13.20;99.90
35962;DHT22;22044;48.298;10.008;2022-10-16T00:17:07;13.00;99.90
35962;DHT22;22044;48.298;10.008;2022-10-16T00:19:52;13.00;99.90
35962;DHT22;22044;48.298;10.008;2022-10-16T00:22:38;13.00;99.90
35962;DHT22;22044;48.298;10.008;2022-10-16T00:25:25;13.00;99.90
35962;DHT22;22044;48.298;10.008;2022-10-16T00:28:11;12.90;99.90
35962;DHT22;22044;48.298;10.008;2022-10-16T00:30:57;12.90;99.90
35962;DHT22;22044;48.298;10.008;2022-10-16T00:33:43;12.90;99.90
35962;DHT22;22044;48.298;10.008;2022-10-16T00:36:29;12.90;99.90
35962;DHT22;22044;48.298;10.008;2022-10-16T00:39:14;12.90;99.90
35962;DHT22;22044;48.298;10.008;2022-10-16T00:42:01;12.80;99.90
35962;DHT22;22044;48.298;10.008;2022-10-16T00:44:48;12.70;99.90
35962;DHT22;22044;48.298;10.008;2022-10-16T00:47:38;12.60;99.90
35962;DHT22;22044;48.298;10.008;2022-10-16T00:50:28;12.70;99.90
35962;DHT22;22044;48.298;10.008;2022-10-16T00:53:16;12.70;99.90
35962;DHT22;22044;48.298;10.008;2022-10-16T00:56:02;12.70;99.90
35962;DHT22;22044;48.298;10.008;2022-10-16T00:58:50;12.80;99.90
35962;DHT22;22044;48.298;10.008;2022-10-16T01:01:35;12.90;99.90
35962;DHT22;22044;48.298;10.008;2022-10-16T01:04:21;12.90;99.90
35962;DHT22;22044;48.298;10.008;2022-10-16T01:07:14;12.90;99.90
35962;DHT22;22044;48.298;10.008;2022-10-16T01:10:07;13.00;99.90
35962;DHT22;22044;48.298;10.008;2022-10-16T01:12:59;13.00;99.90
35962;DHT22;22044;48.298;10.008;2022-10-16T01:15:50;13.10;99.90
35962;DHT22;22044;48.298;10.008;2022-10-16T01:18:39;13.20;99.90
35962;DHT22;22044;48.298;10.008;2022-10-16T01:21:28;13.20;99.90
35962;DHT22;22044;48.298;10.008;2022-10-16T01:24:24;13.30;99.90
35962;DHT22;22044;48.298;10.008;2022-10-16T01:27:15;13.40;99.90
35962;DHT22;22044;48.298;10.008;2022-10-16T01:30:09;13.40;99.90
35962;DHT22;22044;48.298;10.008;2022-10-16T01:32:58;13.30;99.90
35962;DHT22;22044;48.298;10.008;2022-10-16T01:35:49;13.10;99.90
35962;DHT22;22044;48.298;10.008;2022-10-16T01:38:39;12.90;99.90
35962;DHT22;22044;48.298;10.008;2022-10-16T01:41:30;12.90;99.90
35962;DHT22;22044;48.298;10.008;2022-10-16T01:44:20;13.00;99.90
35962;DHT22;22044;48.298;10.008;2022-10-16T01:47:09;13.00;99.90
35962;DHT22;22044;48.298;10.008;2022-10-16T01:49:58;13.10;99.90
35962;DHT22;22044;48.298;10.008;2022-10-16T01:52:46;13.20;99.90
35962;DHT22;22044;48.298;10.008;2022-10-16T01:55:35;13.20;99.90
35962;DHT22;22044;48.298;10.008;2022-10-16T01:58:23;13.30;99.90
35962;DHT22;22044;48.298;10.008;2022-10-16T02:01:13;13.40;99.90
35962;DHT22;22044;48.298;10.008;2022-10-16T02:04:04;13.40;99.90
35962;DHT22;22044;48.298;10.008;2022-10-16T02:06:53;13.30;99.90
35962;DHT22;22044;48.298;10.008;2022-10-16T02:09:39;13.20;99.90
35962;DHT22;22044;48.298;10.008;2022-10-16T02:12:28;13.20;99.90
35962;DHT22;22044;48.298;10.008;2022-10-16T02:15:15;13.10;99.90
35962;DHT22;22044;48.298;10.008;2022-10-16T02:18:04;13.10;99.90
35962;DHT22;22044;48.298;10.008;2022-10-16T02:20:54;13.10;99.90
35962;DHT22;22044;48.298;10.008;2022-10-16T02:23:47;13.10;99.90
35962;DHT22;22044;48.298;10.008;2022-10-16T02:26:39;13.10;99.90
35962;DHT22;22044;48.298;10.008;2022-10-16T02:29:27;13.10;99.90
35962;DHT22;22044;48.298;10.008;2022-10-16T02:32:15;13.10;99.90
35962;DHT22;22044;48.298;10.008;2022-10-16T02:35:08;13.20;99.90
35962;DHT22;22044;48.298;10.008;2022-10-16T02:37:54;13.30;99.90
35962;DHT22;22044;48.298;10.008;2022-10-16T02:40:41;13.20;99.90
35962;DHT22;22044;48.298;10.008;2022-10-16T02:43:26;13.30;99.90
35962;DHT22;22044;48.298;10.008;2022-10-16T02:46:15;13.20;99.90
35962;DHT22;22044;48.298;10.008;2022-10-16T02:49:02;13.10;99.90
35962;DHT22;22044;48.298;10.008;2022-10-16T02:51:48;12.80;99.90
35962;DHT22;22044;48.298;10.008;2022-10-16T02:54:34;12.80;99.90
35962;DHT22;22044;48.298;10.008;2022-10-16T02:57:20;12.80;99.90
35962;DHT22;22044;48.298;10.008;2022-10-16T03:00:06;12.70;99.90
35962;DHT22;22044;48.298;10.008;2022-10-16T03:02:52;12.70;99.90
35962;DHT22;22044;48.298;10.008;2022-10-16T03:05:38;12.70;99.90
35962;DHT22;22044;48.298;10.008;2022-10-16T03:08:25;12.70;99.90
35962;DHT22;22044;48.298;10.008;2022-10-16T03:11:10;12.70;99.90
35962;DHT22;22044;48.298;10.008;2022-10-16T03:13:55;12.70;99.90
35962;DHT22;22044;48.298;10.008;2022-10-16T03:16:41;12.60;99.90
35962;DHT22;22044;48.298;10.008;2022-10-16T03:19:27;12.50;99.90
35962;DHT22;22044;48.298;10.008;2022-10-16T03:22:12;12.60;99.90
35962;DHT22;22044;48.298;10.008;2022-10-16T03:24:59;12.70;99.90
35962;DHT22;22044;48.298;10.008;2022-10-16T03:27:47;12.70;99.90
35962;DHT22;22044;48.298;10.008;2022-10-16T03:30:33;12.80;99.90
35962;DHT22;22044;48.298;10.008;2022-10-16T03:33:18;12.80;99.90
35962;DHT22;22044;48.298;10.008;2022-10-16T03:36:04;12.80;99.90
35962;DHT22;22044;48.298;10.008;2022-10-16T03:38:50;12.90;99.90
35962;DHT22;22044;48.298;10.008;2022-10-16T03:41:37;12.80;99.90
35962;DHT22;22044;48.298;10.008;2022-10-16T03:44:22;12.80;99.90
35962;DHT22;22044;48.298;10.008;2022-10-16T03:47:08;12.70;99.90
35962;DHT22;22044;48.298;10.008;2022-10-16T03:49:53;12.80;99.90
35962;DHT22;22044;48.298;10.008;2022-10-16T03:52:41;12.80;99.90
35962;DHT22;22044;48.298;10.008;2022-10-16T03:55:26;12.90;99.90
35962;DHT22;22044;48.298;10.008;2022-10-16T03:58:14;12.90;99.90
35962;DHT22;22044;48.298;10.008;2022-10-16T04:00:59;13.00;99.90
35962;DHT22;22044;48.298;10.008;2022-10-16T04:03:45;13.00;99.90
35962;DHT22;22044;48.298;10.008;2022-10-16T04:06:30;13.10;99.90
35962;DHT22;22044;48.298;10.008;2022-10-16T04:09:16;13.10;99.90
35962;DHT22;22044;48.298;10.008;2022-10-16T04:12:01;13.10;99.90
35962;DHT22;22044;48.298;10.008;2022-10-16T04:14:48;13.00;99.90
35962;DHT22;22044;48.298;10.008;2022-10-16T04:17:34;12.90;99.90
35962;DHT22;22044;48.298;10.008;2022-10-16T04:20:20;13.00;99.90
35962;DHT22;22044;48.298;10.008;2022-10-16T04:23:05;13.00;99.90
35962;DHT22;22044;48.298;10.008;2022-10-16T04:25:51;13.00;99.90
35962;DHT22;22044;48.298;10.008;2022-10-16T04:28:36;13.00;99.90
35962;DHT22;22044;48.298;10.008;2022-10-16T04:31:23;13.00;99.90
35962;DHT22;22044;48.298;10.008;2022-10-16T04:34:09;13.10;99.90
35962;DHT22;22044;48.298;10.008;2022-10-16T04:36:55;13.10;99.90
35962;DHT22;22044;48.298;10.008;2022-10-16T04:39:40;13.10;99.90
35962;DHT22;22044;48.298;10.008;2022-10-16T04:42:26;13.00;99.90
35962;DHT22;22044;48.298;10.008;2022-10-16T04:45:11;12.70;99.90
35962;DHT22;22044;48.298;10.008;2022-10-16T04:47:59;12.40;99.90
35962;DHT22;22044;48.298;10.008;2022-10-16T04:50:44;12.20;99.90
35962;DHT22;22044;48.298;10.008;2022-10-16T04:53:30;12.00;99.90
35962;DHT22;22044;48.298;10.008;2022-10-16T04:56:16;12.00;99.90
35962;DHT22;22044;48.298;10.008;2022-10-16T04:59:02;12.00;99.90
35962;DHT22;22044;48.298;10.008;2022-10-16T05:01:50;12.00;99.90
35962;DHT22;22044;48.298;10.008;2022-10-16T05:04:37;12.10;99.90
35962;DHT22;22044;48.298;10.008;2022-10-16T05:07:23;12.20;99.90
35962;DHT22;22044;48.298;10.008;2022-10-16T05:10:08;12.30;99.90
35962;DHT22;22044;48.298;10.008;2022-10-16T05:12:54;12.40;99.90
35962;DHT22;22044;48.298;10.008;2022-10-16T05:15:39;12.40;99.90
35962;DHT22;22044;48.298;10.008;2022-10-16T05:18:25;12.50;99.90
35962;DHT22;22044;48.298;10.008;2022-10-16T05:21:12;12.50;99.90
35962;DHT22;22044;48.298;10.008;2022-10-16T05:23:57;12.60;99.90
35962;DHT22;22044;48.298;10.008;2022-10-16T05:26:43;12.60;99.90
35962;DHT22;22044;48.298;10.008;2022-10-16T05:29:29;12.50;99.90
35962;DHT22;22044;48.298;10.008;2022-10-16T05:32:15;12.30;99.90
35962;DHT22;22044;48.298;10.008;2022-10-16T05:35:01;12.30;99.90
35962;DHT22;22044;48.298;10.008;2022-10-16T05:37:48;12.20;99.90
35962;DHT22;22044;48.298;10.008;2022-10-16T05:40:33;12.10;99.90
35962;DHT22;22044;48.298;10.008;2022-10-16T05:43:19;12.10;99.90
35962;DHT22;22044;48.298;10.008;2022-10-16T05:46:05;12.10;99.90
35962;DHT22;22044;48.298;10.008;2022-10-16T05:48:52;12.10;99.90
35962;DHT22;22044;48.298;10.008;2022-10-16T05:51:37;12.20;99.90
35962;DHT22;22044;48.298;10.008;2022-10-16T05:54:24;12.20;99.90
35962;DHT22;22044;48.298;10.008;2022-10-16T05:57:10;12.20;99.90
35962;DHT22;22044;48.298;10.008;2022-10-16T05:59:59;12.10;99.90
35962;DHT22;22044;48.298;10.008;2022-10-16T06:02:44;12.20;99.90
35962;DHT22;22044;48.298;10.008;2022-10-16T06:05:30;12.10;99.90
35962;DHT22;22044;48.298;10.008;2022-10-16T06:08:16;12.20;99.90
35962;DHT22;22044;48.298;10.008;2022-10-16T06:11:04;12.30;99.90
35962;DHT22;22044;48.298;10.008;2022-10-16T06:13:50;12.30;99.90
35962;DHT22;22044;48.298;10.008;2022-10-16T06:16:37;12.40;99.90
35962;DHT22;22044;48.298;10.008;2022-10-16T06:19:23;12.50;99.90
35962;DHT22;22044;48.298;10.008;2022-10-16T06:22:08;12.50;99.90
35962;DHT22;22044;48.298;10.008;2022-10-16T06:24:54;12.60;99.90
35962;DHT22;22044;48.298;10.008;2022-10-16T06:27:41;12.70;99.90
35962;DHT22;22044;48.298;10.008;2022-10-16T06:30:26;12.70;99.90
35962;DHT22;22044;48.298;10.008;2022-10-16T06:33:12;12.60;99.90
35962;DHT22;22044;48.298;10.008;2022-10-16T06:36:02;12.70;99.90
35962;DHT22;22044;48.298;10.008;2022-10-16T06:38:47;12.70;99.90
35962;DHT22;22044;48.298;10.008;2022-10-16T06:41:34;12.80;99.90
35962;DHT22;22044;48.298;10.008;2022-10-16T06:44:34;12.60;99.90
35962;DHT22;22044;48.298;10.008;2022-10-16T06:47:19;12.50;99.90
35962;DHT22;22044;48.298;10.008;2022-10-16T06:50:06;12.40;99.90
35962;DHT22;22044;48.298;10.008;2022-10-16T06:52:52;12.40;99.90
35962;DHT22;22044;48.298;10.008;2022-10-16T06:55:38;12.60;99.90
35962;DHT22;22044;48.298;10.008;2022-10-16T06:58:23;12.60;99.90
35962;DHT22;22044;48.298;10.008;2022-10-16T07:01:11;12.60;99.90
35962;DHT22;22044;48.298;10.008;2022-10-16T07:03:56;12.60;99.90
35962;DHT22;22044;48.298;10.008;2022-10-16T07:06:42;12.80;99.90
35962;DHT22;22044;48.298;10.008;2022-10-16T07:09:27;12.90;99.90
35962;DHT22;22044;48.298;10.008;2022-10-16T07:12:13;12.90;99.90
35962;DHT22;22044;48.298;10.008;2022-10-16T07:14:59;13.00;99.90
35962;DHT22;22044;48.298;10.008;2022-10-16T07:17:46;13.00;99.90
35962;DHT22;22044;48.298;10.008;2022-10-16T07:20:31;13.00;99.90
35962;DHT22;22044;48.298;10.008;2022-10-16T07:23:17;13.00;99.90
35962;DHT22;22044;48.298;10.008;2022-10-16T07:26:03;13.10;99.90
35962;DHT22;22044;48.298;10.008;2022-10-16T07:28:50;13.10;99.90
35962;DHT22;22044;48.298;10.008;2022-10-16T07:31:36;13.20;99.90
35962;DHT22;22044;48.298;10.008;2022-10-16T07:34:23;13.20;99.90
35962;DHT22;22044;48.298;10.008;2022-10-16T07:37:11;13.30;99.90
35962;DHT22;22044;48.298;10.008;2022-10-16T07:39:56;13.30;99.90
35962;DHT22;22044;48.298;10.008;2022-10-16T07:42:42;13.40;99.90
35962;DHT22;22044;48.298;10.008;2022-10-16T07:45:27;13.50;99.90
35962;DHT22;22044;48.298;10.008;2022-10-16T07:48:13;13.60;99.90
35962;DHT22;22044;48.298;10.008;2022-10-16T07:51:00;13.70;99.90
35962;DHT22;22044;48.298;10.008;2022-10-16T07:53:47;13.70;99.90
35962;DHT22;22044;48.298;10.008;2022-10-16T07:56:36;13.80;99.90
35962;DHT22;22044;48.298;10.008;2022-10-16T07:59:22;13.80;99.90
35962;DHT22;22044;48.298;10.008;2022-10-16T08:02:07;14.00;99.90
35962;DHT22;22044;48.298;10.008;2022-10-16T08:04:53;14.10;99.90
35962;DHT22;22044;48.298;10.008;2022-10-16T08:07:40;14.10;99.90
35962;DHT22;22044;48.298;10.008;2022-10-16T08:10:27;14.20;99.90
35962;DHT22;22044;48.298;10.008;2022-10-16T08:13:13;14.30;99.90
35962;DHT22;22044;48.298;10.008;2022-10-16T08:15:59;14.30;99.90
35962;DHT22;22044;48.298;10.008;2022-10-16T08:18:46;14.30;99.90
35962;DHT22;22044;48.298;10.008;2022-10-16T08:21:31;14.40;99.90
35962;DHT22;22044;48.298;10.008;2022-10-16T08:24:20;14.50;99.90
35962;DHT22;22044;48.298;10.008;2022-10-16T08:27:05;14.50;99.90
35962;DHT22;22044;48.298;10.008;2022-10-16T08:29:51;14.60;99.90
35962;DHT22;22044;48.298;10.008;2022-10-16T08:32:36;14.70;99.90
35962;DHT22;22044;48.298;10.008;2022-10-16T08:35:22;14.70;99.90
35962;DHT22;22044;48.298;10.008;2022-10-16T08:38:08;14.60;99.90
35962;DHT22;22044;48.298;10.008;2022-10-16T08:41:09;14.60;99.90
35962;DHT22;22044;48.298;10.008;2022-10-16T08:44:20;14.50;99.90
35962;DHT22;22044;48.298;10.008;2022-10-16T08:47:16;14.50;99.90
35962;DHT22;22044;48.298;10.008;2022-10-16T08:50:09;14.60;99.90
35962;DHT22;22044;48.298;10.008;2022-10-16T08:52:55;14.70;99.90
35962;DHT22;22044;48.298;10.008;2022-10-16T08:55:44;14.80;99.90
35962;DHT22;22044;48.298;10.008;2022-10-16T08:58:31;14.80;99.90
35962;DHT22;22044;48.298;10.008;2022-10-16T09:01:19;14.80;99.90
35962;DHT22;22044;48.298;10.008;2022-10-16T09:04:39;14.90;99.90
35962;DHT22;22044;48.298;10.008;2022-10-16T09:07:32;14.90;99.90
35962;DHT22;22044;48.298;10.008;2022-10-16T09:10:35;14.90;99.90
35962;DHT22;22044;48.298;10.008;2022-10-16T09:13:27;14.90;99.90
35962;DHT22;22044;48.298;10.008;2022-10-16T09:16:19;15.00;99.90
35962;DHT22;22044;48.298;10.008;2022-10-16T09:19:14;15.00;99.90
35962;DHT22;22044;48.298;10.008;2022-10-16T09:22:12;15.00;99.90
35962;DHT22;22044;48.298;10.008;2022-10-16T09:25:00;15.10;99.90
35962;DHT22;22044;48.298;10.008;2022-10-16T09:27:47;15.20;99.90
35962;DHT22;22044;48.298;10.008;2022-10-16T09:30:33;15.20;99.90
35962;DHT22;22044;48.298;10.008;2022-10-16T09:33:22;15.20;99.90
35962;DHT22;22044;48.298;10.008;2022-10-16T09:36:08;15.20;99.90
35962;DHT22;22044;48.298;10.008;2022-10-16T09:39:06;15.40;99.90
35962;DHT22;22044;48.298;10.008;2022-10-16T09:41:51;15.40;99.90
35962;DHT22;22044;48.298;10.008;2022-10-16T09:44:37;15.50;99.90
35962;DHT22;22044;48.298;10.008;2022-10-16T09:47:25;15.70;99.90
35962;DHT22;22044;48.298;10.008;2022-10-16T09:50:22;15.70;99.90
35962;DHT22;22044;48.298;10.008;2022-10-16T09:53:12;15.90;99.90
35962;DHT22;22044;48.298;10.008;2022-10-16T09:55:58;16.00;99.90
35962;DHT22;22044;48.298;10.008;2022-10-16T09:58:50;16.20;99.90
35962;DHT22;22044;48.298;10.008;2022-10-16T10:01:37;16.30;99.90
35962;DHT22;22044;48.298;10.008;2022-10-16T10:04:24;16.60;99.90
35962;DHT22;22044;48.298;10.008;2022-10-16T10:07:20;16.80;99.90
35962;DHT22;22044;48.298;10.008;2022-10-16T10:10:20;16.90;99.90
35962;DHT22;22044;48.298;10.008;2022-10-16T10:13:17;17.00;99.90
35962;DHT22;22044;48.298;10.008;2022-10-16T10:16:04;17.00;99.90
35962;DHT22;22044;48.298;10.008;2022-10-16T10:18:58;17.00;99.90
35962;DHT22;22044;48.298;10.008;2022-10-16T10:21:43;17.00;99.90
35962;DHT22;22044;48.298;10.008;2022-10-16T10:24:30;17.10;99.90
35962;DHT22;22044;48.298;10.008;2022-10-16T10:27:18;17.10;99.90
35962;DHT22;22044;48.298;10.008;2022-10-16T10:30:10;17.20;99.90
35962;DHT22;22044;48.298;10.008;2022-10-16T10:33:12;17.20;99.90
35962;DHT22;22044;48.298;10.008;2022-10-16T10:36:08;17.30;99.90
35962;DHT22;22044;48.298;10.008;2022-10-16T10:38:59;17.40;99.90
35962;DHT22;22044;48.298;10.008;2022-10-16T10:42:23;17.50;99.90
35962;DHT22;22044;48.298;10.008;2022-10-16T10:45:18;17.60;99.90
35962;DHT22;22044;48.298;10.008;2022-10-16T10:48:20;17.70;99.90
35962;DHT22;22044;48.298;10.008;2022-10-16T10:51:10;17.90;99.90
35962;DHT22;22044;48.298;10.008;2022-10-16T10:54:03;17.90;99.90
35962;DHT22;22044;48.298;10.008;2022-10-16T10:56:56;18.00;99.90
35962;DHT22;22044;48.298;10.008;2022-10-16T11:00:00;18.10;99.90
35962;DHT22;22044;48.298;10.008;2022-10-16T11:02:52;18.20;99.90
35962;DHT22;22044;48.298;10.008;2022-10-16T11:05:42;18.20;99.90
35962;DHT22;22044;48.298;10.008;2022-10-16T11:08:32;18.30;99.90
35962;DHT22;22044;48.298;10.008;2022-10-16T11:11:24;18.40;99.90
35962;DHT22;22044;48.298;10.008;2022-10-16T11:14:16;18.40;99.90
35962;DHT22;22044;48.298;10.008;2022-10-16T11:17:08;18.50;99.90
35962;DHT22;22044;48.298;10.008;2022-10-16T11:20:00;18.60;99.90
35962;DHT22;22044;48.298;10.008;2022-10-16T11:22:50;18.70;99.90
35962;DHT22;22044;48.298;10.008;2022-10-16T11:25:36;18.80;99.90
35962;DHT22;22044;48.298;10.008;2022-10-16T11:28:29;18.80;99.90
35962;DHT22;22044;48.298;10.008;2022-10-16T11:31:22;18.90;99.90
35962;DHT22;22044;48.298;10.008;2022-10-16T11:34:16;19.00;99.90
35962;DHT22;22044;48.298;10.008;2022-10-16T11:37:05;19.30;99.90
35962;DHT22;22044;48.298;10.008;2022-10-16T11:39:56;19.50;99.90
35962;DHT22;22044;48.298;10.008;2022-10-16T11:42:48;19.70;99.90
35962;DHT22;22044;48.298;10.008;2022-10-16T11:45:41;19.90;99.90
35962;DHT22;22044;48.298;10.008;2022-10-16T11:48:31;20.00;99.90
35962;DHT22;22044;48.298;10.008;2022-10-16T11:51:29;20.00;99.90
35962;DHT22;22044;48.298;10.008;2022-10-16T11:54:22;20.00;99.90
35962;DHT22;22044;48.298;10.008;2022-10-16T11:57:15;20.10;99.90
35962;DHT22;22044;48.298;10.008;2022-10-16T12:00:09;20.30;99.90
35962;DHT22;22044;48.298;10.008;2022-10-16T12:03:05;20.30;99.90
35962;DHT22;22044;48.298;10.008;2022-10-16T12:06:12;20.40;99.90
35962;DHT22;22044;48.298;10.008;2022-10-16T12:09:04;20.50;99.90
35962;DHT22;22044;48.298;10.008;2022-10-16T12:11:49;20.50;99.90
35962;DHT22;22044;48.298;10.008;2022-10-16T12:14:37;20.50;99.90
35962;DHT22;22044;48.298;10.008;2022-10-16T12:17:26;20.60;99.90
35962;DHT22;22044;48.298;10.008;2022-10-16T12:20:25;20.60;99.90
35962;DHT22;22044;48.298;10.008;2022-10-16T12:23:20;20.70;99.90
35962;DHT22;22044;48.298;10.008;2022-10-16T12:26:07;20.90;99.90
35962;DHT22;22044;48.298;10.008;2022-10-16T12:28:53;20.90;99.90
35962;DHT22;22044;48.298;10.008;2022-10-16T12:31:43;20.90;99.90
35962;DHT22;22044;48.298;10.008;2022-10-16T12:34:37;20.90;99.90
35962;DHT22;22044;48.298;10.008;2022-10-16T12:37:25;21.00;99.90
35962;DHT22;22044;48.298;10.008;2022-10-16T12:40:13;21.00;99.90
35962;DHT22;22044;48.298;10.008;2022-10-16T12:43:12;21.10;99.90
35962;DHT22;22044;48.298;10.008;2022-10-16T12:46:04;20.90;99.90
35962;DHT22;22044;48.298;10.008;2022-10-16T12:48:51;21.00;99.90
35962;DHT22;22044;48.298;10.008;2022-10-16T12:51:37;21.10;99.90
35962;DHT22;22044;48.298;10.008;2022-10-16T12:54:27;21.00;99.90
35962;DHT22;22044;48.298;10.008;2022-10-16T12:57:25;21.00;99.90
35962;DHT22;22044;48.298;10.008;2022-10-16T13:00:24;21.00;99.90
35962;DHT22;22044;48.298;10.008;2022-10-16T13:03:38;21.00;99.90
35962;DHT22;22044;48.298;10.008;2022-10-16T13:06:35;21.00;99.90
35962;DHT22;22044;48.298;10.008;2022-10-16T13:09:34;21.00;99.90
35962;DHT22;22044;48.298;10.008;2022-10-16T13:12:46;21.00;99.90
35962;DHT22;22044;48.298;10.008;2022-10-16T13:15:47;20.90;99.90
35962;DHT22;22044;48.298;10.008;2022-10-16T13:18:43;21.00;99.90
35962;DHT22;22044;48.298;10.008;2022-10-16T13:21:42;21.00;99.90
35962;DHT22;22044;48.298;10.008;2022-10-16T13:24:41;21.00;99.90
35962;DHT22;22044;48.298;10.008;2022-10-16T13:27:36;21.00;99.90
35962;DHT22;22044;48.298;10.008;2022-10-16T13:30:26;20.90;99.90
35962;DHT22;22044;48.298;10.008;2022-10-16T13:33:17;20.80;99.90
35962;DHT22;22044;48.298;10.008;2022-10-16T13:36:05;20.80;99.90
35962;DHT22;22044;48.298;10.008;2022-10-16T13:39:01;20.90;99.90
35962;DHT22;22044;48.298;10.008;2022-10-16T13:42:01;20.90;99.90
35962;DHT22;22044;48.298;10.008;2022-10-16T13:44:50;20.90;99.90
35962;DHT22;22044;48.298;10.008;2022-10-16T13:47:36;20.90;99.90
35962;DHT22;22044;48.298;10.008;2022-10-16T13:50:23;20.90;99.90
35962;DHT22;22044;48.298;10.008;2022-10-16T13:53:14;20.90;99.90
35962;DHT22;22044;48.298;10.008;2022-10-16T13:56:00;20.90;99.90
35962;DHT22;22044;48.298;10.008;2022-10-16T13:58:57;20.90;99.90
35962;DHT22;22044;48.298;10.008;2022-10-16T14:01:44;20.90;99.90
35962;DHT22;22044;48.298;10.008;2022-10-16T14:04:32;20.90;99.90
35962;DHT22;22044;48.298;10.008;2022-10-16T14:07:25;20.90;99.90
35962;DHT22;22044;48.298;10.008;2022-10-16T14:10:22;20.80;99.90
35962;DHT22;22044;48.298;10.008;2022-10-16T14:13:14;20.80;99.90
35962;DHT22;22044;48.298;10.008;2022-10-16T14:16:07;20.80;99.90
35962;DHT22;22044;48.298;10.008;2022-10-16T14:18:57;20.90;99.90
35962;DHT22;22044;48.298;10.008;2022-10-16T14:21:43;20.80;99.90
35962;DHT22;22044;48.298;10.008;2022-10-16T14:24:33;20.90;99.90
35962;DHT22;22044;48.298;10.008;2022-10-16T14:27:30;20.90;99.90
35962;DHT22;22044;48.298;10.008;2022-10-16T14:30:18;20.90;99.90
35962;DHT22;22044;48.298;10.008;2022-10-16T14:33:06;20.90;99.90
35962;DHT22;22044;48.298;10.008;2022-10-16T14:36:01;20.90;99.90
35962;DHT22;22044;48.298;10.008;2022-10-16T14:38:57;20.90;99.90
35962;DHT22;22044;48.298;10.008;2022-10-16T14:41:48;20.90;99.90
35962;DHT22;22044;48.298;10.008;2022-10-16T14:44:33;20.90;99.90
35962;DHT22;22044;48.298;10.008;2022-10-16T14:47:21;20.90;99.90
35962;DHT22;22044;48.298;10.008;2022-10-16T14:50:09;20.90;99.90
35962;DHT22;22044;48.298;10.008;2022-10-16T14:52:55;20.90;99.90
35962;DHT22;22044;48.298;10.008;2022-10-16T14:55:41;20.80;99.90
35962;DHT22;22044;48.298;10.008;2022-10-16T14:58:30;20.70;99.90
35962;DHT22;22044;48.298;10.008;2022-10-16T15:01:17;20.60;99.90
35962;DHT22;22044;48.298;10.008;2022-10-16T15:04:03;20.50;99.90
35962;DHT22;22044;48.298;10.008;2022-10-16T15:06:49;20.50;99.90
35962;DHT22;22044;48.298;10.008;2022-10-16T15:09:34;20.40;99.90
35962;DHT22;22044;48.298;10.008;2022-10-16T15:12:20;20.40;99.90
35962;DHT22;22044;48.298;10.008;2022-10-16T15:18:16;20.20;99.90
35962;DHT22;22044;48.298;10.008;2022-10-16T15:21:05;20.20;99.90
35962;DHT22;22044;48.298;10.008;2022-10-16T15:23:50;20.30;99.90
35962;DHT22;22044;48.298;10.008;2022-10-16T15:26:36;20.40;99.90
35962;DHT22;22044;48.298;10.008;2022-10-16T15:29:24;20.40;99.90
35962;DHT22;22044;48.298;10.008;2022-10-16T15:32:11;20.40;99.90
35962;DHT22;22044;48.298;10.008;2022-10-16T15:34:57;20.40;99.90
35962;DHT22;22044;48.298;10.008;2022-10-16T15:37:43;20.50;99.90
35962;DHT22;22044;48.298;10.008;2022-10-16T15:40:29;20.40;99.90
35962;DHT22;22044;48.298;10.008;2022-10-16T15:43:14;20.40;99.90
35962;DHT22;22044;48.298;10.008;2022-10-16T15:46:02;20.40;99.90
35962;DHT22;22044;48.298;10.008;2022-10-16T15:48:50;20.30;99.90
35962;DHT22;22044;48.298;10.008;2022-10-16T15:51:38;20.20;99.90
35962;DHT22;22044;48.298;10.008;2022-10-16T15:54:23;20.10;99.90
35962;DHT22;22044;48.298;10.008;2022-10-16T15:57:09;20.00;99.90
35962;DHT22;22044;48.298;10.008;2022-10-16T15:59:55;19.90;99.90
35962;DHT22;22044;48.298;10.008;2022-10-16T16:02:41;19.80;99.90
35962;DHT22;22044;48.298;10.008;2022-10-16T16:05:29;19.70;99.90
35962;DHT22;22044;48.298;10.008;2022-10-16T16:08:14;19.70;99.90
35962;DHT22;22044;48.298;10.008;2022-10-16T16:11:04;19.70;99.90
35962;DHT22;22044;48.298;10.008;2022-10-16T16:13:50;19.50;99.90
35962;DHT22;22044;48.298;10.008;2022-10-16T16:16:36;19.30;99.90
35962;DHT22;22044;48.298;10.008;2022-10-16T16:19:22;19.10;99.90
35962;DHT22;22044;48.298;10.008;2022-10-16T16:22:09;19.00;99.90
35962;DHT22;22044;48.298;10.008;2022-10-16T16:24:56;18.90;99.90
35962;DHT22;22044;48.298;10.008;2022-10-16T16:27:42;18.80;99.90
35962;DHT22;22044;48.298;10.008;2022-10-16T16:30:28;18.80;99.90
35962;DHT22;22044;48.298;10.008;2022-10-16T16:33:14;18.90;99.90
35962;DHT22;22044;48.298;10.008;2022-10-16T16:36:02;18.90;99.90
35962;DHT22;22044;48.298;10.008;2022-10-16T16:38:49;18.90;99.90
35962;DHT22;22044;48.298;10.008;2022-10-16T16:41:35;18.90;99.90
35962;DHT22;22044;48.298;10.008;2022-10-16T16:44:20;18.90;99.90
35962;DHT22;22044;48.298;10.008;2022-10-16T16:47:06;18.90;99.90
35962;DHT22;22044;48.298;10.008;2022-10-16T16:49:52;18.80;99.90
35962;DHT22;22044;48.298;10.008;2022-10-16T16:52:37;18.70;99.90
35962;DHT22;22044;48.298;10.008;2022-10-16T16:55:24;18.70;99.90
35962;DHT22;22044;48.298;10.008;2022-10-16T16:58:11;18.60;99.90
35962;DHT22;22044;48.298;10.008;2022-10-16T17:00:57;18.40;99.90
35962;DHT22;22044;48.298;10.008;2022-10-16T17:03:45;18.30;99.90
35962;DHT22;22044;48.298;10.008;2022-10-16T17:06:30;18.20;99.90
35962;DHT22;22044;48.298;10.008;2022-10-16T17:09:16;18.20;99.90
35962;DHT22;22044;48.298;10.008;2022-10-16T17:12:03;18.20;99.90
35962;DHT22;22044;48.298;10.008;2022-10-16T17:14:50;18.20;99.90
35962;DHT22;22044;48.298;10.008;2022-10-16T17:17:36;18.20;99.90
35962;DHT22;22044;48.298;10.008;2022-10-16T17:20:22;18.20;99.90
35962;DHT22;22044;48.298;10.008;2022-10-16T17:23:08;18.20;99.90
35962;DHT22;22044;48.298;10.008;2022-10-16T17:25:53;18.10;99.90
35962;DHT22;22044;48.298;10.008;2022-10-16T17:28:41;18.10;99.90
35962;DHT22;22044;48.298;10.008;2022-10-16T17:31:29;18.00;99.90